sensor_id;sensor_type;location;lat;lon;timestamp;pressure;altitude;pressure_sealevel;temperature;humidity
81387;BME280;70842;50.744;7.114;2023-06-19T11:58:15;100700.78;;;28.56;31.63
81387;BME280;70842;50.744;7.114;2023-06-19T12:00:42;100703.31;;;28.23;31.46
81387;BME280;70842;50.744;7.114;2023-06-19T12:03:09;100691.91;;;28.49;31.86
81387;BME280;70842;50.744;7.114;2023-06-19T12:05:39;100697.78;;;28.81;31.17
81387;BME280;70842;50.744;7.114;2023-06-19T12:08:05;100703.44;;;28.39;32.00
81387;BME280;70842;50.744;7.114;2023-06-19T12:10:33;100704.03;;;28.07;34.99
81387;BME280;70842;50.744;7.114;2023-06-19T12:13:00;100700.34;;;28.36;32.00
81387;BME280;70842;50.744;7.114;2023-06-19T12:15:26;100699.03;;;28.50;31.66
81387;BME280;70842;50.744;7.114;2023-06-19T12:17:53;100703.28;;;28.97;31.69
81387;BME280;70842;50.744;7.114;2023-06-19T12:20:19;100705.19;;;28.57;30.85
81387;BME280;70842;50.744;7.114;2023-06-19T12:22:46;100697.19;;;29.07;30.75
81387;BME280;70842;50.744;7.114;2023-06-19T12:25:12;100691.09;;;29.45;30.36
81387;BME280;70842;50.744;7.114;2023-06-19T12:27:39;100686.03;;;29.37;30.50
81387;BME280;70842;50.744;7.114;2023-06-19T12:30:06;100679.75;;;29.53;30.40
81387;BME280;70842;50.744;7.114;2023-06-19T12:32:32;100679.16;;;29.67;29.49
81387;BME280;70842;50.744;7.114;2023-06-19T12:34:59;100680.50;;;29.48;29.54
81387;BME280;70842;50.744;7.114;2023-06-19T12:37:25;100676.94;;;29.64;29.47
81387;BME280;70842;50.744;7.114;2023-06-19T12:39:52;100681.75;;;29.90;28.94
81387;BME280;70842;50.744;7.114;2023-06-19T12:42:18;100678.63;;;29.98;28.75
81387;BME280;70842;50.744;7.114;2023-06-19T12:44:45;100675.56;;;29.78;29.36
81387;BME280;70842;50.744;7.114;2023-06-19T12:47:12;100673.59;;;30.72;27.63
81387;BME280;70842;50.744;7.114;2023-06-19T12:49:39;100678.13;;;30.61;28.57
81387;BME280;70842;50.744;7.114;2023-06-19T12:52:06;100681.28;;;30.97;27.59
81387;BME280;70842;50.744;7.114;2023-06-19T12:54:32;100673.03;;;30.10;28.57
81387;BME280;70842;50.744;7.114;2023-06-19T12:56:59;100671.56;;;29.53;28.82
81387;BME280;70842;50.744;7.114;2023-06-19T12:59:26;100671.19;;;30.32;28.26
81387;BME280;70842;50.744;7.114;2023-06-19T13:01:52;100674.88;;;30.86;27.07
81387;BME280;70842;50.744;7.114;2023-06-19T13:04:18;100656.97;;;30.14;28.50
81387;BME280;70842;50.744;7.114;2023-06-19T13:06:45;100671.69;;;29.74;28.73
81387;BME280;70842;50.744;7.114;2023-06-19T13:09:12;100664.66;;;30.81;27.98
81387;BME280;70842;50.744;7.114;2023-06-19T13:11:38;100659.91;;;30.72;27.45
81387;BME280;70842;50.744;7.114;2023-06-19T13:14:04;100652.69;;;30.23;28.50
81387;BME280;70842;50.744;7.114;2023-06-19T13:16:31;100651.19;;;29.93;29.69
81387;BME280;70842;50.744;7.114;2023-06-19T13:19:11;100638.41;;;29.77;29.08
81387;BME280;70842;50.744;7.114;2023-06-19T13:21:38;100643.75;;;30.27;29.16
81387;BME280;70842;50.744;7.114;2023-06-19T13:24:04;100645.66;;;31.18;28.03
81387;BME280;70842;50.744;7.114;2023-06-19T13:26:31;100641.97;;;30.81;28.38
81387;BME280;70842;50.744;7.114;2023-06-19T13:28:57;100635.56;;;30.49;27.67
81387;BME280;70842;50.744;7.114;2023-06-19T13:31:25;100631.63;;;30.40;27.17
81387;BME280;70842;50.744;7.114;2023-06-19T13:33:51;100641.38;;;31.27;26.12
81387;BME280;70842;50.744;7.114;2023-06-19T13:36:18;100634.19;;;30.95;26.40
81387;BME280;70842;50.744;7.114;2023-06-19T13:38:45;100633.88;;;31.18;26.55
81387;BME280;70842;50.744;7.114;2023-06-19T13:41:12;100637.06;;;30.83;27.21
81387;BME280;70842;50.744;7.114;2023-06-19T13:43:39;100639.25;;;30.81;27.45
81387;BME280;70842;50.744;7.114;2023-06-19T13:46:08;100632.66;;;31.35;26.66
81387;BME280;70842;50.744;7.114;2023-06-19T13:48:34;100630.56;;;31.16;26.53
81387;BME280;70842;50.744;7.114;2023-06-19T16:13:19;100551.31;;;30.24;29.72
81387;BME280;70842;50.744;7.114;2023-06-19T16:15:46;100548.31;;;31.01;28.75
81387;BME280;70842;50.744;7.114;2023-06-19T16:18:12;100547.56;;;31.42;28.05
81387;BME280;70842;50.744;7.114;2023-06-19T16:20:38;100554.34;;;30.76;28.67
81387;BME280;70842;50.744;7.114;2023-06-19T16:23:05;100551.72;;;30.33;27.96
81387;BME280;70842;50.744;7.114;2023-06-19T16:25:31;100549.34;;;30.68;28.48
81387;BME280;70842;50.744;7.114;2023-06-19T16:27:58;100547.22;;;30.48;28.88
81387;BME280;70842;50.744;7.114;2023-06-19T16:30:27;100551.50;;;29.58;30.18
81387;BME280;70842;50.744;7.114;2023-06-19T16:32:54;100548.69;;;29.03;31.54
81387;BME280;70842;50.744;7.114;2023-06-19T16:35:21;100537.38;;;29.27;30.83
81387;BME280;70842;50.744;7.114;2023-06-19T16:37:50;100548.38;;;29.33;31.36
81387;BME280;70842;50.744;7.114;2023-06-19T16:40:20;100546.94;;;29.13;31.75
81387;BME280;70842;50.744;7.114;2023-06-19T16:42:47;100552.91;;;29.27;31.21
81387;BME280;70842;50.744;7.114;2023-06-19T16:45:14;100550.69;;;29.41;31.04
81387;BME280;70842;50.744;7.114;2023-06-19T16:47:41;100540.03;;;29.39;31.31
81387;BME280;70842;50.744;7.114;2023-06-19T16:50:08;100541.84;;;29.33;29.72
81387;BME280;70842;50.744;7.114;2023-06-19T16:52:34;100531.09;;;29.44;29.71
81387;BME280;70842;50.744;7.114;2023-06-19T16:58:31;100525.44;;;31.17;29.03
81387;BME280;70842;50.744;7.114;2023-06-19T17:00:57;100526.44;;;30.26;30.05
81387;BME280;70842;50.744;7.114;2023-06-19T17:03:24;100527.78;;;30.45;29.19
81387;BME280;70842;50.744;7.114;2023-06-19T17:05:50;100528.56;;;30.40;29.05
81387;BME280;70842;50.744;7.114;2023-06-19T17:08:17;100529.47;;;30.29;29.25
81387;BME280;70842;50.744;7.114;2023-06-19T17:10:43;100524.53;;;30.26;29.48
81387;BME280;70842;50.744;7.114;2023-06-19T17:13:09;100531.81;;;30.16;29.23
81387;BME280;70842;50.744;7.114;2023-06-19T17:15:36;100532.81;;;30.09;29.56
81387;BME280;70842;50.744;7.114;2023-06-19T17:18:02;100529.44;;;30.02;29.73
81387;BME280;70842;50.744;7.114;2023-06-19T17:20:30;100531.03;;;29.98;29.53
81387;BME280;70842;50.744;7.114;2023-06-19T17:22:56;100531.22;;;29.92;29.44
81387;BME280;70842;50.744;7.114;2023-06-19T17:25:23;100521.91;;;29.88;30.44
81387;BME280;70842;50.744;7.114;2023-06-19T17:27:50;100524.72;;;29.76;30.45
81387;BME280;70842;50.744;7.114;2023-06-19T17:30:16;100526.78;;;29.69;30.52
81387;BME280;70842;50.744;7.114;2023-06-19T17:32:42;100527.75;;;29.58;30.81
81387;BME280;70842;50.744;7.114;2023-06-19T17:35:12;100538.28;;;29.50;30.94
81387;BME280;70842;50.744;7.114;2023-06-19T17:37:39;100534.38;;;29.46;31.00
81387;BME280;70842;50.744;7.114;2023-06-19T17:40:07;100535.53;;;29.33;31.30
81387;BME280;70842;50.744;7.114;2023-06-19T17:42:42;100531.59;;;29.24;31.23
81387;BME280;70842;50.744;7.114;2023-06-19T17:45:08;100541.94;;;29.22;31.18
81387;BME280;70842;50.744;7.114;2023-06-19T17:47:35;100526.56;;;29.16;31.36
81387;BME280;70842;50.744;7.114;2023-06-19T17:50:01;100534.63;;;29.11;31.53
81387;BME280;70842;50.744;7.114;2023-06-19T17:52:28;100535.09;;;29.08;31.49
81387;BME280;70842;50.744;7.114;2023-06-19T17:54:55;100538.09;;;29.06;31.56
81387;BME280;70842;50.744;7.114;2023-06-19T17:57:22;100540.00;;;29.06;31.49
81387;BME280;70842;50.744;7.114;2023-06-19T17:59:49;100545.38;;;29.01;31.87
81387;BME280;70842;50.744;7.114;2023-06-19T18:02:15;100544.22;;;28.97;31.81
81387;BME280;70842;50.744;7.114;2023-06-19T18:04:42;100550.91;;;28.89;31.67
81387;BME280;70842;50.744;7.114;2023-06-19T18:07:08;100551.84;;;28.95;31.88
81387;BME280;70842;50.744;7.114;2023-06-19T18:09:35;100553.16;;;28.92;32.21
81387;BME280;70842;50.744;7.114;2023-06-19T18:12:01;100551.16;;;28.88;32.31
81387;BME280;70842;50.744;7.114;2023-06-19T18:14:28;100546.44;;;28.83;32.17
81387;BME280;70842;50.744;7.114;2023-06-19T18:16:54;100560.41;;;28.87;32.19
81387;BME280;70842;50.744;7.114;2023-06-19T18:19:23;100556.91;;;28.75;32.17
81387;BME280;70842;50.744;7.114;2023-06-19T18:21:50;100556.06;;;28.74;32.80
81387;BME280;70842;50.744;7.114;2023-06-19T18:24:16;100562.25;;;28.70;32.71
81387;BME280;70842;50.744;7.114;2023-06-19T18:26:43;100559.69;;;28.63;33.14
81387;BME280;70842;50.744;7.114;2023-06-19T18:29:09;100555.56;;;28.61;33.17
81387;BME280;70842;50.744;7.114;2023-06-19T18:31:35;100565.31;;;28.57;33.27
81387;BME280;70842;50.744;7.114;2023-06-19T18:34:02;100565.75;;;28.53;33.57
81387;BME280;70842;50.744;7.114;2023-06-19T18:36:29;100554.41;;;28.45;33.58
81387;BME280;70842;50.744;7.114;2023-06-19T18:38:55;100554.16;;;28.46;33.26
81387;BME280;70842;50.744;7.114;2023-06-19T18:41:22;100558.97;;;28.39;33.68
81387;BME280;70842;50.744;7.114;2023-06-19T18:43:48;100550.19;;;28.37;33.79
81387;BME280;70842;50.744;7.114;2023-06-19T18:46:15;100552.94;;;28.26;34.02
81387;BME280;70842;50.744;7.114;2023-06-19T18:48:41;100545.25;;;28.23;34.71
81387;BME280;70842;50.744;7.114;2023-06-19T18:51:10;100549.44;;;28.14;34.78
81387;BME280;70842;50.744;7.114;2023-06-19T18:53:37;100553.34;;;28.06;34.93
81387;BME280;70842;50.744;7.114;2023-06-19T18:56:03;100552.19;;;28.02;34.97
81387;BME280;70842;50.744;7.114;2023-06-19T18:58:30;100555.41;;;27.99;35.38
81387;BME280;70842;50.744;7.114;2023-06-19T19:00:56;100555.00;;;27.96;35.56
81387;BME280;70842;50.744;7.114;2023-06-19T19:03:23;100557.16;;;27.94;35.91
81387;BME280;70842;50.744;7.114;2023-06-19T19:05:50;100555.97;;;27.90;36.01
81387;BME280;70842;50.744;7.114;2023-06-19T19:08:16;100555.03;;;27.84;36.35
81387;BME280;70842;50.744;7.114;2023-06-19T19:10:42;100558.16;;;27.76;36.73
81387;BME280;70842;50.744;7.114;2023-06-19T19:13:09;100557.44;;;27.69;36.67
81387;BME280;70842;50.744;7.114;2023-06-19T19:15:37;100558.13;;;27.64;36.35
81387;BME280;70842;50.744;7.114;2023-06-19T19:18:03;100556.72;;;27.62;36.66
81387;BME280;70842;50.744;7.114;2023-06-19T19:20:30;100561.91;;;27.63;36.38
81387;BME280;70842;50.744;7.114;2023-06-19T19:22:57;100561.22;;;27.56;36.45
81387;BME280;70842;50.744;7.114;2023-06-19T19:25:23;100556.94;;;27.49;37.13
81387;BME280;70842;50.744;7.114;2023-06-19T19:27:50;100566.06;;;27.43;37.13
81387;BME280;70842;50.744;7.114;2023-06-19T19:30:16;100566.06;;;27.43;37.38
81387;BME280;70842;50.744;7.114;2023-06-19T19:32:43;100562.88;;;27.46;37.32
81387;BME280;70842;50.744;7.114;2023-06-19T19:35:09;100569.16;;;27.46;37.41
81387;BME280;70842;50.744;7.114;2023-06-19T19:37:36;100571.41;;;27.38;37.07
81387;BME280;70842;50.744;7.114;2023-06-19T19:40:03;100574.44;;;27.30;37.44
81387;BME280;70842;50.744;7.114;2023-06-19T19:42:29;100574.19;;;27.20;37.39
81387;BME280;70842;50.744;7.114;2023-06-19T19:44:56;100571.31;;;27.15;38.10
81387;BME280;70842;50.744;7.114;2023-06-19T19:47:24;100570.13;;;27.11;37.81
81387;BME280;70842;50.744;7.114;2023-06-19T19:49:51;100568.97;;;27.06;38.09
81387;BME280;70842;50.744;7.114;2023-06-19T19:52:17;100571.06;;;27.04;38.48
81387;BME280;70842;50.744;7.114;2023-06-19T19:54:44;100578.66;;;27.02;38.86
81387;BME280;70842;50.744;7.114;2023-06-19T19:57:10;100581.97;;;27.04;38.82
81387;BME280;70842;50.744;7.114;2023-06-19T19:59:36;100592.94;;;26.98;39.04
81387;BME280;70842;50.744;7.114;2023-06-19T20:02:03;100592.59;;;26.94;38.41
81387;BME280;70842;50.744;7.114;2023-06-19T20:04:30;100590.53;;;26.78;39.42
81387;BME280;70842;50.744;7.114;2023-06-19T20:06:56;100592.31;;;26.84;39.79
81387;BME280;70842;50.744;7.114;2023-06-19T20:09:22;100591.84;;;26.87;39.18
81387;BME280;70842;50.744;7.114;2023-06-19T20:11:49;100601.63;;;26.77;39.55
81387;BME280;70842;50.744;7.114;2023-06-19T20:14:16;100605.47;;;26.69;39.76
81387;BME280;70842;50.744;7.114;2023-06-19T20:16:42;100609.94;;;26.64;40.13
81387;BME280;70842;50.744;7.114;2023-06-19T20:19:09;100606.16;;;26.65;40.22
81387;BME280;70842;50.744;7.114;2023-06-19T20:21:35;100599.44;;;26.67;40.45
81387;BME280;70842;50.744;7.114;2023-06-19T20:24:03;100604.28;;;26.65;40.40
81387;BME280;70842;50.744;7.114;2023-06-19T20:26:30;100609.13;;;26.63;40.20
81387;BME280;70842;50.744;7.114;2023-06-19T20:28:59;100606.84;;;26.60;40.86
81387;BME280;70842;50.744;7.114;2023-06-19T20:31:26;100614.41;;;26.58;40.78
81387;BME280;70842;50.744;7.114;2023-06-19T20:33:52;100615.19;;;26.47;40.86
81387;BME280;70842;50.744;7.114;2023-06-19T20:36:19;100617.28;;;26.45;41.36
81387;BME280;70842;50.744;7.114;2023-06-19T20:38:47;100622.75;;;26.27;41.78
81387;BME280;70842;50.744;7.114;2023-06-19T20:41:14;100620.44;;;26.12;42.31
81387;BME280;70842;50.744;7.114;2023-06-19T20:43:43;100618.78;;;26.05;42.17
81387;BME280;70842;50.744;7.114;2023-06-19T20:46:12;100616.69;;;26.07;42.22
81387;BME280;70842;50.744;7.114;2023-06-19T20:48:41;100616.50;;;26.08;42.16
81387;BME280;70842;50.744;7.114;2023-06-19T20:51:08;100612.75;;;26.03;42.34
81387;BME280;70842;50.744;7.114;2023-06-19T20:53:35;100603.41;;;25.99;42.84
81387;BME280;70842;50.744;7.114;2023-06-19T20:56:02;100599.66;;;26.00;43.29
81387;BME280;70842;50.744;7.114;2023-06-19T20:58:28;100602.97;;;26.02;43.19
81387;BME280;70842;50.744;7.114;2023-06-19T21:00:55;100603.41;;;25.99;42.74
81387;BME280;70842;50.744;7.114;2023-06-19T21:03:21;100605.53;;;25.97;42.51
81387;BME280;70842;50.744;7.114;2023-06-19T21:05:49;100600.09;;;25.97;42.07
81387;BME280;70842;50.744;7.114;2023-06-19T21:08:15;100593.75;;;25.85;42.38
81387;BME280;70842;50.744;7.114;2023-06-19T21:10:42;100598.13;;;25.86;42.03
81387;BME280;70842;50.744;7.114;2023-06-19T21:13:09;100592.91;;;25.84;42.98
81387;BME280;70842;50.744;7.114;2023-06-19T21:15:43;100594.44;;;25.80;42.22
81387;BME280;70842;50.744;7.114;2023-06-19T21:18:09;100596.91;;;25.82;42.27
81387;BME280;70842;50.744;7.114;2023-06-19T21:20:35;100594.66;;;25.79;42.08
81387;BME280;70842;50.744;7.114;2023-06-19T21:23:02;100584.84;;;25.78;41.87
81387;BME280;70842;50.744;7.114;2023-06-19T21:25:28;100588.22;;;25.73;41.70
81387;BME280;70842;50.744;7.114;2023-06-19T21:27:55;100595.41;;;25.68;41.85
81387;BME280;70842;50.744;7.114;2023-06-19T21:30:21;100582.94;;;25.60;42.03
81387;BME280;70842;50.744;7.114;2023-06-19T21:32:48;100579.41;;;25.60;41.93
81387;BME280;70842;50.744;7.114;2023-06-19T21:35:15;100581.34;;;25.52;42.08
81387;BME280;70842;50.744;7.114;2023-06-19T21:37:41;100585.50;;;25.55;42.20
81387;BME280;70842;50.744;7.114;2023-06-19T21:40:08;100580.50;;;25.52;42.62
81387;BME280;70842;50.744;7.114;2023-06-19T21:42:35;100580.13;;;25.48;43.09
81387;BME280;70842;50.744;7.114;2023-06-19T21:45:01;100586.47;;;25.42;42.97
81387;BME280;70842;50.744;7.114;2023-06-19T21:47:29;100591.03;;;25.42;43.57
81387;BME280;70842;50.744;7.114;2023-06-19T21:49:55;100593.75;;;25.42;43.61
81387;BME280;70842;50.744;7.114;2023-06-19T21:52:22;100586.00;;;25.45;43.23
81387;BME280;70842;50.744;7.114;2023-06-19T21:54:48;100583.75;;;25.42;43.42
81387;BME280;70842;50.744;7.114;2023-06-19T21:57:14;100582.25;;;25.46;43.12
81387;BME280;70842;50.744;7.114;2023-06-19T21:59:41;100592.69;;;25.43;43.66
81387;BME280;70842;50.744;7.114;2023-06-19T22:02:07;100585.38;;;25.43;44.11
81387;BME280;70842;50.744;7.114;2023-06-19T22:04:37;100585.16;;;25.45;44.24
81387;BME280;70842;50.744;7.114;2023-06-19T22:07:03;100588.97;;;25.37;44.89
81387;BME280;70842;50.744;7.114;2023-06-19T22:09:30;100576.13;;;25.26;45.54
81387;BME280;70842;50.744;7.114;2023-06-19T22:11:57;100577.13;;;25.32;45.26
81387;BME280;70842;50.744;7.114;2023-06-19T22:14:23;100588.34;;;25.35;45.45
81387;BME280;70842;50.744;7.114;2023-06-19T22:16:50;100577.13;;;25.32;45.52
81387;BME280;70842;50.744;7.114;2023-06-19T22:19:16;100567.69;;;25.34;45.32
81387;BME280;70842;50.744;7.114;2023-06-19T22:21:43;100578.22;;;25.24;45.57
81387;BME280;70842;50.744;7.114;2023-06-19T22:24:09;100580.22;;;25.11;46.00
81387;BME280;70842;50.744;7.114;2023-06-19T22:26:36;100581.03;;;25.11;46.52
81387;BME280;70842;50.744;7.114;2023-06-19T22:29:06;100584.75;;;25.17;46.37
81387;BME280;70842;50.744;7.114;2023-06-19T22:31:32;100590.38;;;25.15;46.36
81387;BME280;70842;50.744;7.114;2023-06-19T22:33:59;100588.75;;;25.14;46.19
81387;BME280;70842;50.744;7.114;2023-06-19T22:36:25;100590.50;;;25.02;46.99
81387;BME280;70842;50.744;7.114;2023-06-19T22:38:52;100586.41;;;24.93;47.03
81387;BME280;70842;50.744;7.114;2023-06-19T22:41:18;100591.44;;;24.90;46.84
81387;BME280;70842;50.744;7.114;2023-06-19T22:43:45;100590.75;;;24.94;47.09
81387;BME280;70842;50.744;7.114;2023-06-19T22:46:11;100595.84;;;24.84;47.84
81387;BME280;70842;50.744;7.114;2023-06-19T22:48:39;100593.34;;;24.83;47.85
81387;BME280;70842;50.744;7.114;2023-06-19T22:51:09;100587.09;;;24.82;48.33
81387;BME280;70842;50.744;7.114;2023-06-19T22:53:35;100590.91;;;24.68;48.68
81387;BME280;70842;50.744;7.114;2023-06-19T22:56:03;100599.50;;;24.58;49.06
81387;BME280;70842;50.744;7.114;2023-06-19T22:58:30;100601.63;;;24.50;49.20
81387;BME280;70842;50.744;7.114;2023-06-19T23:00:56;100597.28;;;24.49;49.24
81387;BME280;70842;50.744;7.114;2023-06-19T23:03:23;100593.75;;;24.42;49.67
81387;BME280;70842;50.744;7.114;2023-06-19T23:05:50;100590.44;;;24.40;49.68
81387;BME280;70842;50.744;7.114;2023-06-19T23:08:19;100584.59;;;24.43;49.82
81387;BME280;70842;50.744;7.114;2023-06-19T23:10:46;100592.94;;;24.35;49.63
81387;BME280;70842;50.744;7.114;2023-06-19T23:13:12;100584.41;;;24.38;49.77
81387;BME280;70842;50.744;7.114;2023-06-19T23:15:39;100594.97;;;24.46;49.44
81387;BME280;70842;50.744;7.114;2023-06-19T23:18:05;100587.47;;;24.48;50.32
81387;BME280;70842;50.744;7.114;2023-06-19T23:20:33;100585.78;;;24.53;49.62
81387;BME280;70842;50.744;7.114;2023-06-19T23:22:59;100581.22;;;24.47;49.77
81387;BME280;70842;50.744;7.114;2023-06-19T23:25:26;100577.69;;;24.47;50.06
81387;BME280;70842;50.744;7.114;2023-06-19T23:27:52;100577.22;;;24.56;49.75
81387;BME280;70842;50.744;7.114;2023-06-19T23:30:19;100570.75;;;24.57;50.10
81387;BME280;70842;50.744;7.114;2023-06-19T23:32:45;100570.13;;;24.55;50.11
81387;BME280;70842;50.744;7.114;2023-06-19T23:35:12;100577.28;;;24.43;49.81
81387;BME280;70842;50.744;7.114;2023-06-19T23:37:38;100575.19;;;24.45;49.94
81387;BME280;70842;50.744;7.114;2023-06-19T23:40:05;100561.56;;;24.58;49.39
81387;BME280;70842;50.744;7.114;2023-06-19T23:42:34;100562.41;;;24.59;49.29
81387;BME280;70842;50.744;7.114;2023-06-19T23:45:00;100566.22;;;24.51;49.31
81387;BME280;70842;50.744;7.114;2023-06-19T23:47:27;100573.53;;;24.44;49.43
81387;BME280;70842;50.744;7.114;2023-06-19T23:49:53;100576.47;;;24.43;49.55
81387;BME280;70842;50.744;7.114;2023-06-19T23:52:20;100578.31;;;24.49;50.22
81387;BME280;70842;50.744;7.114;2023-06-19T23:55:04;100575.47;;;24.31;50.15
81387;BME280;70842;50.744;7.114;2023-06-19T23:57:30;100584.66;;;24.30;50.22
81387;BME280;70842;50.744;7.114;2023-06-19T23:59:57;100577.38;;;24.24;50.51
